Time;durP1;ratioP1;P1;durP2;ratioP2;P2;SDS_P1;SDS_P2;PMS_P1;PMS_P2;Temp;Humidity;BMP_temperature;BMP_pressure;BME280_temperature;BME280_humidity;BME280_pressure;Samples;Min_cycle;Max_cycle;Signal;HPM_P1;HPM_P2
2022/12/14 00:02:55;;;;;;;31.43;20.67;;;-4.30;1.00;;;;;;6260844;28;20237;-50
2022/12/14 00:05:59;;;;;;;27.53;19.97;;;-4.20;1.00;;;;;;6257571;28;20652;-58
2022/12/14 00:09:04;;;;;;;31.23;21.20;;;-4.30;1.00;;;;;;6262464;28;20269;-49
2022/12/14 00:12:10;;;;;;;33.60;21.70;;;-4.40;1.00;;;;;;6266695;28;20612;-51
2022/12/14 00:15:13;;;;;;;30.80;20.53;;;-4.20;1.00;;;;;;6264244;28;20233;-50
2022/12/14 00:18:16;;;;;;;30.93;21.33;;;-4.30;1.00;;;;;;6265358;28;20719;-49
2022/12/14 00:21:24;;;;;;;29.50;21.47;;;-4.10;1.00;;;;;;6265021;28;20699;-50
2022/12/14 00:24:27;;;;;;;29.23;20.70;;;-4.30;1.00;;;;;;6250143;28;20234;-50
2022/12/14 00:27:32;;;;;;;32.27;21.43;;;-4.50;1.00;;;;;;6240047;28;20253;-50
2022/12/14 00:30:34;;;;;;;29.63;19.87;;;-4.50;1.00;;;;;;6239999;28;20420;-52
2022/12/14 00:33:38;;;;;;;33.33;21.93;;;-4.10;1.00;;;;;;6239991;28;20234;-51
2022/12/14 00:36:41;;;;;;;25.73;19.30;;;-4.40;1.00;;;;;;6239984;28;20234;-50
2022/12/14 00:39:45;;;;;;;29.93;20.50;;;-4.20;1.00;;;;;;6232498;28;20406;-48
2022/12/14 00:42:49;;;;;;;35.17;21.90;;;-4.50;1.00;;;;;;6239118;28;20726;-50
2022/12/14 00:45:52;;;;;;;28.97;20.70;;;-4.40;1.00;;;;;;6239123;28;20246;-49
2022/12/14 00:48:55;;;;;;;31.17;21.10;;;-4.50;1.00;;;;;;6229470;28;20239;-49
2022/12/14 00:51:58;;;;;;;32.30;21.53;;;-4.60;1.00;;;;;;6214408;28;20243;-50
2022/12/14 00:55:01;;;;;;;29.57;20.67;;;-4.50;1.00;;;;;;6215714;28;20243;-49
2022/12/14 00:58:06;;;;;;;29.37;21.07;;;-4.50;1.00;;;;;;6223721;28;20243;-50
2022/12/14 01:01:12;;;;;;;28.20;21.33;;;-4.60;1.00;;;;;;6238562;28;20765;-50
2022/12/14 01:04:20;;;;;;;30.23;20.97;;;-4.50;1.00;;;;;;6238734;28;20334;-50
2022/12/14 01:07:23;;;;;;;29.97;21.20;;;-4.50;1.00;;;;;;6238306;28;20606;-51
2022/12/14 01:10:26;;;;;;;31.83;21.77;;;-4.60;1.00;;;;;;6223606;28;20247;-51
2022/12/14 01:13:30;;;;;;;36.30;22.30;;;-4.50;1.00;;;;;;6222503;28;20238;-50
2022/12/14 01:16:34;;;;;;;29.87;21.53;;;-4.60;1.00;;;;;;6238782;28;20245;-50
2022/12/14 01:19:37;;;;;;;31.83;22.43;;;-4.70;1.00;;;;;;6238476;28;20242;-50
2022/12/14 01:22:40;;;;;;;29.07;21.13;;;-4.80;1.00;;;;;;6239568;28;20237;-49
2022/12/14 01:25:43;;;;;;;29.30;20.60;;;-4.50;1.00;;;;;;6209493;28;20759;-50
2022/12/14 01:28:55;;;;;;;33.43;21.53;;;-4.70;1.00;;;;;;6223177;28;20333;-49
2022/12/14 01:31:58;;;;;;;32.73;22.53;;;-4.60;1.00;;;;;;6238553;28;20227;-50
2022/12/14 01:35:00;;;;;;;34.00;21.87;;;-4.90;1.00;;;;;;6238226;28;20235;-49
2022/12/14 01:38:03;;;;;;;31.77;21.83;;;-4.80;1.00;;;;;;6228324;28;20235;-51
2022/12/14 01:41:08;;;;;;;32.27;22.17;;;-4.80;1.00;;;;;;6218493;28;20235;-49
2022/12/14 01:44:48;;;;;;;31.17;21.90;;;-4.80;1.00;;;;;;6213155;28;20814;-49
2022/12/14 01:47:56;;;;;;;32.47;22.30;;;-4.80;1.00;;;;;;6215117;28;20434;-57
2022/12/14 01:50:59;;;;;;;32.37;21.77;;;-4.80;1.00;;;;;;6209660;28;20235;-49
2022/12/14 01:54:04;;;;;;;35.10;22.47;;;-4.80;1.00;;;;;;6233231;28;20250;-50
2022/12/14 01:57:07;;;;;;;35.87;22.50;;;-5.00;1.00;;;;;;6236303;28;20245;-49
2022/12/14 02:00:15;;;;;;;31.57;21.70;;;-4.80;1.00;;;;;;6237400;28;20234;-50
2022/12/14 02:03:22;;;;;;;32.77;20.97;;;-4.90;1.00;;;;;;6229603;28;20243;-51
2022/12/14 02:06:28;;;;;;;30.07;21.97;;;-4.90;1.00;;;;;;6236994;28;20430;-48
2022/12/14 02:09:34;;;;;;;32.50;22.03;;;-5.10;1.00;;;;;;6235283;28;20242;-52
2022/12/14 02:12:41;;;;;;;32.60;20.40;;;-4.90;1.00;;;;;;6229645;28;20242;-49
2022/12/14 02:15:44;;;;;;;32.17;21.13;;;-5.10;1.00;;;;;;6234798;28;20238;-49
2022/12/14 02:18:49;;;;;;;33.33;21.30;;;-5.00;1.00;;;;;;6235426;28;20289;-49
2022/12/14 02:22:10;;;;;;;33.07;21.77;;;-5.10;1.00;;;;;;6214562;28;20231;-49
2022/12/14 02:25:43;;;;;;;32.13;21.93;;;-4.90;1.00;;;;;;6211561;28;20736;-49
2022/12/14 02:29:32;;;;;;;34.43;22.83;;;-5.10;1.00;;;;;;6211310;28;20236;-53
2022/12/14 02:32:58;;;;;;;36.87;22.77;;;-5.10;1.00;;;;;;6224244;28;20237;-47
2022/12/14 02:36:06;;;;;;;30.03;21.73;;;-5.30;1.00;;;;;;6234037;28;20242;-50
2022/12/14 02:39:19;;;;;;;37.50;22.70;;;-5.40;1.00;;;;;;6227705;28;20471;-50
2022/12/14 02:42:32;;;;;;;37.43;22.63;;;-5.10;1.00;;;;;;6211390;28;20231;-50
2022/12/14 02:45:41;;;;;;;39.73;24.37;;;-5.40;1.00;;;;;;6217955;28;20239;-49
2022/12/14 02:48:51;;;;;;;35.93;23.80;;;-5.40;1.00;;;;;;6235429;28;20239;-50
2022/12/14 02:52:01;;;;;;;31.70;21.87;;;-5.40;1.00;;;;;;6235433;28;20235;-49
2022/12/14 02:55:16;;;;;;;31.67;21.57;;;-5.40;1.00;;;;;;6219884;28;20799;-50
2022/12/14 02:58:24;;;;;;;33.57;21.87;;;-5.40;1.00;;;;;;6210422;28;20420;-49
2022/12/14 03:01:29;;;;;;;34.23;22.43;;;-5.50;1.00;;;;;;6217943;28;20675;-50
2022/12/14 03:04:46;;;;;;;33.87;22.03;;;-5.40;1.00;;;;;;6235167;28;20276;-56
2022/12/14 03:07:52;;;;;;;34.30;22.83;;;-5.20;1.00;;;;;;6234695;28;20251;-49
2022/12/14 03:10:57;;;;;;;30.80;21.50;;;-5.20;1.00;;;;;;6225898;28;20231;-50
2022/12/14 03:14:06;;;;;;;30.80;21.07;;;-5.40;1.00;;;;;;6222762;28;20235;-49
2022/12/14 03:17:16;;;;;;;30.73;20.97;;;-5.50;1.00;;;;;;6237091;28;20267;-49
2022/12/14 03:20:26;;;;;;;32.93;21.63;;;-5.50;1.00;;;;;;6219317;28;20251;-50
2022/12/14 03:23:34;;;;;;;33.70;22.17;;;-5.50;1.00;;;;;;6212453;28;20246;-50
2022/12/14 03:26:43;;;;;;;31.50;22.00;;;-5.50;1.00;;;;;;6212550;28;20243;-58
2022/12/14 03:29:53;;;;;;;34.47;22.13;;;-5.30;1.00;;;;;;6211290;28;20613;-51
2022/12/14 03:33:01;;;;;;;30.27;21.33;;;-5.50;1.00;;;;;;6230295;28;20231;-49
2022/12/14 03:36:13;;;;;;;32.03;21.27;;;-5.60;1.00;;;;;;6211568;28;20235;-51
2022/12/14 03:39:23;;;;;;;31.73;21.00;;;-5.60;1.00;;;;;;6227692;28;20264;-50
2022/12/14 03:42:33;;;;;;;30.27;21.50;;;-5.50;1.00;;;;;;6212927;28;20482;-50
2022/12/14 03:45:44;;;;;;;30.67;20.57;;;-5.70;1.00;;;;;;6215820;28;20315;-49
2022/12/14 03:48:52;;;;;;;30.73;22.27;;;-5.70;1.00;;;;;;6215037;28;20251;-49
2022/12/14 03:52:00;;;;;;;35.07;23.30;;;-5.50;1.00;;;;;;6215360;28;20739;-49
2022/12/14 03:55:14;;;;;;;32.93;21.63;;;-5.60;1.00;;;;;;6215668;28;20239;-50
2022/12/14 03:58:25;;;;;;;31.47;21.87;;;-5.80;1.00;;;;;;6215060;28;20236;-50
2022/12/14 04:01:37;;;;;;;30.17;21.57;;;-5.60;1.00;;;;;;6222173;28;20711;-49
2022/12/14 04:04:47;;;;;;;29.80;20.33;;;-5.70;1.00;;;;;;6239147;28;20250;-49
2022/12/14 04:07:59;;;;;;;34.33;21.83;;;-5.60;1.00;;;;;;6239076;28;20858;-49
2022/12/14 04:21:21;;;;;;;30.37;21.47;;;-5.80;1.00;;;;;;6234552;28;20381;-50
2022/12/14 04:27:54;;;;;;;29.67;20.83;;;-5.80;1.00;;;;;;6238988;28;20238;-50
2022/12/14 04:30:58;;;;;;;34.43;22.17;;;-6.00;1.00;;;;;;6223879;28;20234;-49
2022/12/14 04:34:05;;;;;;;32.60;22.17;;;-5.70;1.00;;;;;;6221303;28;20742;-49
2022/12/14 04:37:15;;;;;;;34.63;21.77;;;-5.90;1.00;;;;;;6237174;28;20718;-55
2022/12/14 04:40:21;;;;;;;32.30;21.80;;;-5.90;1.00;;;;;;6230801;28;20223;-49
2022/12/14 04:43:28;;;;;;;31.83;20.57;;;-5.70;1.00;;;;;;6236259;28;20814;-49
2022/12/14 04:46:36;;;;;;;31.67;20.60;;;-5.90;1.00;;;;;;6238900;28;20239;-49
2022/12/14 04:49:49;;;;;;;30.80;22.10;;;-6.00;1.00;;;;;;6227873;28;20795;-54
2022/12/14 04:52:58;;;;;;;31.50;21.43;;;-5.90;1.00;;;;;;6238555;28;20265;-55
2022/12/14 04:56:07;;;;;;;31.63;21.60;;;-6.10;1.00;;;;;;6237363;28;20250;-53
2022/12/14 04:59:10;;;;;;;30.53;21.03;;;-6.00;1.00;;;;;;6227140;28;20706;-50
2022/12/14 05:02:21;;;;;;;29.23;21.43;;;-6.00;1.00;;;;;;6237865;28;20534;-50
2022/12/14 05:05:28;;;;;;;32.17;21.37;;;-6.00;1.00;;;;;;6232551;28;20497;-49
2022/12/14 05:08:54;;;;;;;27.67;21.13;;;-6.00;1.00;;;;;;6230958;28;20242;-56
2022/12/14 05:12:04;;;;;;;30.77;21.70;;;-6.10;1.00;;;;;;6229632;28;20235;-48
2022/12/14 05:15:11;;;;;;;29.37;22.00;;;-6.20;1.00;;;;;;6236860;28;20257;-51
2022/12/14 05:18:16;;;;;;;34.67;22.53;;;-6.20;1.00;;;;;;6231759;28;20468;-50
2022/12/14 05:25:01;;;;;;;32.07;21.40;;;-6.10;1.00;;;;;;6257465;28;20250;-49
2022/12/14 05:28:05;;;;;;;33.33;22.80;;;-6.20;1.00;;;;;;6258418;28;20226;-49
2022/12/14 05:31:08;;;;;;;31.13;21.50;;;-6.20;1.00;;;;;;6249802;28;20859;-51
2022/12/14 05:34:11;;;;;;;31.27;21.07;;;-6.20;1.00;;;;;;6265119;28;20237;-49
2022/12/14 05:37:14;;;;;;;31.30;20.87;;;-6.10;1.00;;;;;;6234093;28;20251;-51
2022/12/14 05:40:21;;;;;;;29.37;20.90;;;-6.10;1.00;;;;;;6235031;28;20231;-55
2022/12/14 05:43:24;;;;;;;32.97;22.90;;;-6.30;1.00;;;;;;6235906;28;20235;-49
2022/12/14 05:46:28;;;;;;;31.37;21.90;;;-6.20;1.00;;;;;;6235605;28;20245;-49
2022/12/14 05:49:31;;;;;;;35.93;21.73;;;-6.30;1.00;;;;;;6249675;28;20360;-50
2022/12/14 05:52:34;;;;;;;29.10;21.80;;;-6.30;1.00;;;;;;6252215;28;20237;-54
2022/12/14 05:55:39;;;;;;;30.57;22.00;;;-6.50;1.00;;;;;;6247359;28;20230;-52
2022/12/14 05:58:42;;;;;;;32.13;21.43;;;-6.40;1.00;;;;;;6254421;28;20247;-49
2022/12/14 06:01:45;;;;;;;31.47;21.90;;;-6.20;1.00;;;;;;6262524;28;20261;-49
2022/12/14 06:04:52;;;;;;;29.87;20.30;;;-6.30;1.00;;;;;;6260667;28;20234;-50
2022/12/14 06:07:55;;;;;;;31.00;21.87;;;-6.20;1.00;;;;;;6256677;28;20366;-50
2022/12/14 06:11:04;;;;;;;33.50;21.33;;;-6.40;1.00;;;;;;6261598;28;20245;-49
2022/12/14 06:14:07;;;;;;;31.67;21.27;;;-6.30;1.00;;;;;;6232907;28;20242;-49
2022/12/14 06:17:11;;;;;;;30.43;21.20;;;-6.30;1.00;;;;;;6242494;28;20246;-46
2022/12/14 06:20:14;;;;;;;30.47;21.03;;;-6.20;1.00;;;;;;6230639;28;20234;-49
2022/12/14 06:23:17;;;;;;;32.03;22.33;;;-6.10;1.00;;;;;;6236664;28;20234;-51
2022/12/14 06:26:23;;;;;;;32.33;21.50;;;-6.20;1.00;;;;;;6229618;28;20954;-49
2022/12/14 06:29:26;;;;;;;27.87;21.57;;;-6.20;1.00;;;;;;6226297;28;20485;-50
2022/12/14 06:32:29;;;;;;;31.90;21.53;;;-6.30;1.00;;;;;;6231108;28;20237;-51
2022/12/14 06:35:31;;;;;;;29.47;21.80;;;-6.40;1.00;;;;;;6228464;28;20725;-49
2022/12/14 06:38:35;;;;;;;35.00;21.97;;;-6.30;1.00;;;;;;6233530;28;20269;-50
2022/12/14 06:41:40;;;;;;;28.50;20.37;;;-6.20;1.00;;;;;;6234251;28;20239;-49
2022/12/14 06:44:43;;;;;;;29.47;20.93;;;-6.10;1.00;;;;;;6234359;28;20239;-52
2022/12/14 06:47:46;;;;;;;30.00;20.57;;;-6.10;1.00;;;;;;6226756;28;20643;-49
2022/12/14 06:50:49;;;;;;;28.83;20.40;;;-6.10;1.00;;;;;;6235471;28;20231;-49
2022/12/14 06:53:53;;;;;;;33.10;21.70;;;-6.20;1.00;;;;;;6233707;28;20862;-49
2022/12/14 06:56:57;;;;;;;32.57;21.23;;;-6.10;1.00;;;;;;6253104;28;20264;-50
2022/12/14 07:00:00;;;;;;;31.03;20.63;;;-6.20;1.00;;;;;;6257557;28;20469;-49
2022/12/14 07:03:03;;;;;;;30.13;21.70;;;-6.30;1.00;;;;;;6258831;28;20615;-49
2022/12/14 07:06:07;;;;;;;27.97;20.30;;;-6.20;1.00;;;;;;6253885;28;20230;-50
2022/12/14 07:09:13;;;;;;;30.33;20.27;;;-6.40;1.00;;;;;;6258254;28;20245;-49
2022/12/14 07:12:17;;;;;;;27.83;20.33;;;-6.20;1.00;;;;;;6253705;28;20231;-51
2022/12/14 07:15:21;;;;;;;32.77;21.57;;;-6.30;1.00;;;;;;6256390;28;20711;-47
2022/12/14 07:18:25;;;;;;;30.53;20.80;;;-6.20;1.00;;;;;;6255840;28;20238;-50
2022/12/14 07:21:28;;;;;;;28.50;20.87;;;-6.20;1.00;;;;;;6253321;28;20849;-50
2022/12/14 07:24:31;;;;;;;30.90;20.07;;;-6.20;1.00;;;;;;6259193;28;20749;-50
2022/12/14 07:27:35;;;;;;;31.07;20.90;;;-6.40;1.00;;;;;;6260348;28;20241;-49
2022/12/14 07:30:38;;;;;;;30.30;20.40;;;-6.10;1.00;;;;;;6260447;28;20245;-49
2022/12/14 07:33:41;;;;;;;33.47;20.80;;;-6.00;1.00;;;;;;6254405;28;20764;-50
2022/12/14 07:36:44;;;;;;;31.83;22.03;;;-6.10;1.00;;;;;;6259209;28;20249;-50
2022/12/14 07:39:47;;;;;;;29.97;20.20;;;-6.10;1.00;;;;;;6260845;28;20237;-49
2022/12/14 07:42:51;;;;;;;33.33;20.27;;;-6.20;1.00;;;;;;6256204;28;20756;-50
2022/12/14 07:45:59;;;;;;;36.30;20.80;;;-6.10;1.00;;;;;;6260504;28;20761;-51
2022/12/14 07:49:03;;;;;;;32.43;22.17;;;-6.30;1.00;;;;;;6261525;28;20238;-49
2022/12/14 07:52:06;;;;;;;33.57;20.87;;;-5.90;1.00;;;;;;6252893;28;20238;-49
2022/12/14 07:55:09;;;;;;;31.87;22.00;;;-5.80;1.00;;;;;;6255938;28;20249;-52
2022/12/14 07:58:14;;;;;;;27.00;20.07;;;-5.90;1.00;;;;;;6270881;28;20317;-49
2022/12/14 08:01:19;;;;;;;30.47;20.33;;;-5.70;1.00;;;;;;6259412;28;20597;-49
2022/12/14 08:04:22;;;;;;;24.67;19.27;;;-5.60;1.00;;;;;;6258429;28;20613;-51
2022/12/14 08:07:26;;;;;;;29.97;20.87;;;-5.60;1.00;;;;;;6234521;28;20265;-49
2022/12/14 08:10:29;;;;;;;32.20;19.80;;;-5.70;1.00;;;;;;6226376;28;20238;-50
2022/12/14 08:13:42;;;;;;;25.93;20.07;;;-5.80;1.00;;;;;;6231942;28;20758;-50
2022/12/14 08:16:45;;;;;;;31.27;21.03;;;-5.60;1.00;;;;;;6227635;28;20247;-52
2022/12/14 08:19:48;;;;;;;32.63;21.50;;;-5.50;1.00;;;;;;6229057;28;20238;-52
2022/12/14 08:22:52;;;;;;;29.80;20.90;;;-5.40;1.00;;;;;;6238769;28;20234;-50
2022/12/14 08:25:55;;;;;;;27.17;19.40;;;-5.40;1.00;;;;;;6242681;28;20234;-52
2022/12/14 08:29:00;;;;;;;30.00;20.60;;;-5.60;1.00;;;;;;6238201;28;20234;-50
2022/12/14 08:32:03;;;;;;;30.27;20.57;;;-5.40;1.00;;;;;;6238916;28;20254;-50
2022/12/14 08:35:07;;;;;;;30.33;19.47;;;-5.10;1.00;;;;;;6238075;28;20238;-51
2022/12/14 08:38:10;;;;;;;33.60;20.93;;;-5.00;1.00;;;;;;6243188;28;20239;-50
2022/12/14 08:41:14;;;;;;;25.60;19.50;;;-5.30;1.00;;;;;;6236402;28;20627;-51
2022/12/14 08:44:19;;;;;;;27.43;20.67;;;-5.10;1.00;;;;;;6240917;28;20234;-51
2022/12/14 08:47:22;;;;;;;26.37;19.83;;;-4.50;1.00;;;;;;6246972;28;20803;-50
2022/12/14 08:50:25;;;;;;;30.87;19.43;;;-4.60;1.00;;;;;;6237766;28;20241;-50
2022/12/14 08:53:28;;;;;;;26.20;18.57;;;-4.40;1.00;;;;;;6237358;28;20230;-50
2022/12/14 08:56:31;;;;;;;23.27;19.70;;;-4.40;1.00;;;;;;6231311;28;20292;-50
2022/12/14 08:59:36;;;;;;;31.17;19.53;;;-4.30;1.00;;;;;;6233191;28;20430;-51
2022/12/14 09:02:59;;;;;;;25.43;18.43;;;-4.10;1.00;;;;;;6234055;28;22246;-56
2022/12/14 09:06:03;;;;;;;28.17;19.07;;;-4.20;1.00;;;;;;6237815;28;20239;-50
2022/12/14 09:09:07;;;;;;;23.53;18.53;;;-4.10;1.00;;;;;;6231864;28;20245;-50
2022/12/14 09:12:19;;;;;;;25.17;19.13;;;-4.00;1.00;;;;;;6237818;28;20652;-50
2022/12/14 09:15:23;;;;;;;24.53;18.80;;;-3.70;1.00;;;;;;6229605;28;20236;-53
2022/12/14 09:18:26;;;;;;;27.27;21.43;;;-3.60;1.00;;;;;;6236569;28;20393;-50
2022/12/14 09:21:31;;;;;;;26.87;19.13;;;-3.80;1.00;;;;;;6241495;28;20453;-50
2022/12/14 09:24:34;;;;;;;29.10;19.70;;;-3.80;1.00;;;;;;6236532;28;20473;-50
2022/12/14 09:27:37;;;;;;;31.10;19.93;;;-3.80;1.00;;;;;;6238062;28;20238;-51
2022/12/14 09:30:41;;;;;;;28.67;20.77;;;-3.70;1.00;;;;;;6234996;28;20849;-51
2022/12/14 09:33:44;;;;;;;31.03;20.30;;;-3.50;1.00;;;;;;6234142;28;20469;-51
2022/12/14 09:36:48;;;;;;;29.67;20.30;;;-3.30;1.00;;;;;;6236601;28;20881;-50
2022/12/14 09:39:51;;;;;;;32.40;21.23;;;-3.40;1.00;;;;;;6235903;28;20375;-50
2022/12/14 09:43:00;;;;;;;27.83;19.00;;;-3.70;1.00;;;;;;6228026;28;20235;-51
2022/12/14 09:46:21;;;;;;;28.93;19.70;;;-3.50;1.00;;;;;;6231836;28;20595;-51
2022/12/14 09:49:28;;;;;;;26.07;20.03;;;-3.40;1.00;;;;;;6228482;28;20239;-50
2022/12/14 09:52:37;;;;;;;27.90;20.47;;;-3.30;1.00;;;;;;6237184;28;20258;-50
2022/12/14 09:55:44;;;;;;;24.40;19.50;;;-3.30;1.00;;;;;;6234232;28;20230;-50
2022/12/14 09:58:53;;;;;;;28.77;19.63;;;-3.10;1.00;;;;;;6259895;28;20241;-50
2022/12/14 10:02:05;;;;;;;26.83;19.60;;;-3.10;1.00;;;;;;6269126;28;20861;-51
2022/12/14 10:05:55;;;;;;;23.77;18.43;;;-3.00;1.00;;;;;;6272789;28;20233;-50
2022/12/14 10:09:08;;;;;;;24.90;18.73;;;-3.00;1.00;;;;;;6268719;28;20646;-50
2022/12/14 10:12:23;;;;;;;25.40;18.63;;;-3.20;1.00;;;;;;6270899;28;20622;-51
2022/12/14 10:15:35;;;;;;;30.93;20.57;;;-3.00;1.00;;;;;;6260438;28;20234;-50
2022/12/14 10:18:57;;;;;;;29.77;20.67;;;-3.00;1.00;;;;;;6263899;28;20249;-51
2022/12/14 10:22:10;;;;;;;26.50;19.93;;;-2.90;1.00;;;;;;6268307;28;20461;-52
2022/12/14 10:25:16;;;;;;;24.73;18.83;;;-2.80;1.00;;;;;;6257002;28;20217;-52
2022/12/14 10:28:23;;;;;;;25.03;18.57;;;-2.60;1.00;;;;;;6254378;28;20242;-50
2022/12/14 10:31:30;;;;;;;24.70;18.53;;;-2.70;1.00;;;;;;6260077;28;20246;-52
2022/12/14 10:34:36;;;;;;;25.00;19.50;;;-2.30;1.00;;;;;;6256028;28;20249;-51
2022/12/14 10:37:43;;;;;;;24.27;19.50;;;-2.60;1.00;;;;;;6257084;28;20428;-52
2022/12/14 10:40:50;;;;;;;25.40;19.17;;;-2.30;1.00;;;;;;6259657;28;20230;-50
2022/12/14 10:44:04;;;;;;;23.80;18.90;;;-2.30;1.00;;;;;;6257374;28;20375;-51
2022/12/14 10:47:15;;;;;;;25.33;18.27;;;-2.20;1.00;;;;;;6257519;28;20241;-51
2022/12/14 10:50:26;;;;;;;24.00;19.07;;;-2.20;1.00;;;;;;6258196;28;20241;-50
2022/12/14 10:53:36;;;;;;;26.90;20.17;;;-2.50;1.00;;;;;;6255928;28;20256;-50
2022/12/14 10:56:44;;;;;;;27.20;19.90;;;-2.50;1.00;;;;;;6256753;28;20485;-51
2022/12/14 10:59:53;;;;;;;25.03;18.63;;;-2.50;1.00;;;;;;6256836;28;20472;-51
2022/12/14 11:03:15;;;;;;;24.97;18.07;;;-2.40;1.00;;;;;;6257997;28;20226;-51
2022/12/14 11:06:20;;;;;;;23.87;19.10;;;-2.20;1.00;;;;;;6258630;28;20612;-51
2022/12/14 11:09:24;;;;;;;22.23;17.73;;;-2.40;1.00;;;;;;6258290;28;20238;-52
2022/12/14 11:12:27;;;;;;;26.43;19.43;;;-2.40;1.00;;;;;;6256904;28;20607;-50
2022/12/14 11:15:34;;;;;;;21.03;17.37;;;-2.10;1.00;;;;;;6257610;28;20238;-50
2022/12/14 11:18:37;;;;;;;28.27;18.20;;;-2.40;1.00;;;;;;6256591;28;20382;-51
2022/12/14 11:21:42;;;;;;;27.77;18.90;;;-2.00;1.00;;;;;;6260243;28;20627;-50
2022/12/14 11:24:47;;;;;;;24.07;16.77;;;-2.00;1.00;;;;;;6259348;28;20237;-50
2022/12/14 11:27:51;;;;;;;22.73;16.70;;;-1.80;1.00;;;;;;6253359;28;20535;-51
2022/12/14 11:30:57;;;;;;;23.57;17.43;;;-1.80;1.00;;;;;;6259241;28;20559;-50
2022/12/14 11:34:03;;;;;;;22.20;17.67;;;-1.50;1.00;;;;;;6259298;28;20948;-51
2022/12/14 11:37:20;;;;;;;26.30;17.27;;;-1.60;1.00;;;;;;6252639;28;20432;-50
2022/12/14 11:40:25;;;;;;;22.60;17.57;;;-1.50;1.00;;;;;;6259465;28;20248;-51
2022/12/14 11:43:33;;;;;;;23.43;17.80;;;-1.30;1.00;;;;;;6255473;28;20246;-54
2022/12/14 11:46:45;;;;;;;24.70;18.20;;;-1.20;1.00;;;;;;6258113;28;20241;-51
2022/12/14 11:49:53;;;;;;;24.87;17.87;;;-1.50;1.00;;;;;;6257948;28;20762;-50
2022/12/14 11:53:04;;;;;;;20.23;17.10;;;-1.30;1.00;;;;;;6256113;28;20457;-50
2022/12/14 11:56:16;;;;;;;24.63;18.43;;;-1.50;1.00;;;;;;6259989;28;20233;-51
2022/12/14 11:59:20;;;;;;;26.30;18.00;;;-1.40;1.00;;;;;;6259241;28;20373;-50
2022/12/14 12:02:27;;;;;;;21.10;17.50;;;-1.60;1.00;;;;;;6258845;28;20614;-51
2022/12/14 12:05:32;;;;;;;27.07;19.87;;;-1.40;1.00;;;;;;6264009;28;20421;-51
2022/12/14 12:08:39;;;;;;;26.30;18.80;;;-1.30;1.00;;;;;;6261801;28;20241;-52
2022/12/14 12:11:45;;;;;;;35.07;18.97;;;-1.40;1.00;;;;;;6263979;28;20238;-51
2022/12/14 12:14:54;;;;;;;24.43;17.37;;;-1.30;1.00;;;;;;6258624;28;20251;-52
2022/12/14 12:18:03;;;;;;;22.40;16.00;;;-1.50;1.00;;;;;;6259832;28;20695;-48
2022/12/14 12:21:11;;;;;;;21.37;16.50;;;-1.40;1.00;;;;;;6265417;28;20230;-51
2022/12/14 12:24:21;;;;;;;23.67;16.93;;;-1.30;1.00;;;;;;6275904;28;20222;-52
2022/12/14 12:27:25;;;;;;;21.90;17.10;;;-1.50;1.00;;;;;;6271593;28;20234;-51
2022/12/14 12:30:33;;;;;;;22.03;17.23;;;-1.40;1.00;;;;;;6266134;28;20320;-51
2022/12/14 12:33:42;;;;;;;21.63;17.50;;;-1.70;1.00;;;;;;6260923;28;20230;-54
2022/12/14 12:36:46;;;;;;;21.57;17.33;;;-1.90;1.00;;;;;;6261238;28;20807;-51
2022/12/14 12:40:16;;;;;;;23.83;17.80;;;-1.50;1.00;;;;;;6260789;28;20695;-55
2022/12/14 12:43:25;;;;;;;22.90;18.60;;;-1.70;1.00;;;;;;6261651;28;20683;-51
2022/12/14 12:46:30;;;;;;;20.57;16.30;;;-1.50;1.00;;;;;;6268003;28;20309;-51
2022/12/14 12:49:34;;;;;;;20.47;16.37;;;-1.80;1.00;;;;;;6257977;28;20235;-52
2022/12/14 12:52:51;;;;;;;20.13;16.57;;;-1.70;1.00;;;;;;6272986;28;20248;-51
2022/12/14 12:56:06;;;;;;;24.60;19.67;;;-1.70;1.00;;;;;;6266081;28;20234;-51
2022/12/14 12:59:16;;;;;;;28.07;20.03;;;-2.00;1.00;;;;;;6259958;28;20245;-51
2022/12/14 13:02:28;;;;;;;26.90;19.07;;;-1.80;1.00;;;;;;6266091;28;20240;-54
2022/12/14 13:05:34;;;;;;;24.23;17.97;;;-1.90;1.00;;;;;;6273002;28;20233;-51
2022/12/14 13:08:57;;;;;;;21.17;17.33;;;-1.80;1.00;;;;;;6259772;28;20248;-52
2022/12/14 13:12:03;;;;;;;19.97;17.43;;;-1.40;1.00;;;;;;6249781;28;20227;-53
2022/12/14 13:15:14;;;;;;;20.33;17.00;;;-1.60;1.00;;;;;;6228082;28;20583;-52
2022/12/14 13:18:24;;;;;;;20.50;16.07;;;-1.50;1.00;;;;;;6229422;28;20249;-52
2022/12/14 13:21:50;;;;;;;19.30;16.23;;;-1.60;1.00;;;;;;6229754;28;20234;-51
2022/12/14 13:24:54;;;;;;;23.17;16.07;;;-1.40;1.00;;;;;;6237052;28;20712;-52
2022/12/14 13:28:21;;;;;;;21.80;16.97;;;-1.50;1.00;;;;;;6249402;28;20287;-51
2022/12/14 13:31:36;;;;;;;23.23;16.83;;;-1.80;1.00;;;;;;6257806;28;20240;-51
2022/12/14 13:34:52;;;;;;;21.10;17.07;;;-1.80;1.00;;;;;;6266663;28;20240;-51
2022/12/14 13:38:17;;;;;;;23.40;16.47;;;-1.90;1.00;;;;;;6247077;28;20250;-51
2022/12/14 13:41:31;;;;;;;21.03;16.43;;;-2.10;1.00;;;;;;6252850;28;20237;-51
2022/12/14 13:44:55;;;;;;;24.27;18.30;;;-2.20;1.00;;;;;;6234565;28;20242;-51
2022/12/14 13:47:59;;;;;;;20.43;16.43;;;-2.30;1.00;;;;;;6234107;28;20249;-51
2022/12/14 13:51:05;;;;;;;21.87;17.50;;;-2.40;1.00;;;;;;6235493;28;20245;-49
2022/12/14 13:54:20;;;;;;;29.67;18.90;;;-2.40;1.00;;;;;;6230235;28;20710;-51
2022/12/14 13:57:25;;;;;;;23.43;17.87;;;-2.50;1.00;;;;;;6236190;28;20235;-51
2022/12/14 14:00:52;;;;;;;26.17;18.67;;;-2.60;1.00;;;;;;6236441;28;20703;-51
2022/12/14 14:04:17;;;;;;;25.80;18.33;;;-2.30;1.00;;;;;;6260102;28;20235;-51
2022/12/14 14:07:48;;;;;;;24.77;17.80;;;-2.50;1.00;;;;;;6236467;28;20223;-50
2022/12/14 14:10:51;;;;;;;24.40;18.47;;;-2.70;1.00;;;;;;6234819;28;20227;-53
2022/12/14 14:14:41;;;;;;;27.43;19.07;;;-2.70;1.00;;;;;;6233774;28;20265;-51
2022/12/14 14:17:47;;;;;;;27.50;18.53;;;-2.80;1.00;;;;;;6236996;28;20239;-49
2022/12/14 14:20:52;;;;;;;24.33;17.27;;;-2.60;1.00;;;;;;6234068;28;20384;-51
2022/12/14 14:24:17;;;;;;;29.30;18.63;;;-2.80;1.00;;;;;;6238954;28;20629;-50
2022/12/14 14:27:23;;;;;;;28.73;17.93;;;-2.90;1.00;;;;;;6261961;28;20246;-51
2022/12/14 14:30:29;;;;;;;26.03;18.50;;;-2.90;1.00;;;;;;6261311;28;20257;-51
2022/12/14 14:33:40;;;;;;;25.00;17.83;;;-2.80;1.00;;;;;;6263737;28;20257;-53
2022/12/14 14:36:50;;;;;;;26.53;17.57;;;-2.90;1.00;;;;;;6259040;28;20250;-55
2022/12/14 14:40:02;;;;;;;25.83;19.33;;;-2.90;1.00;;;;;;6260868;28;20264;-51
2022/12/14 14:43:30;;;;;;;24.47;18.13;;;-3.00;1.00;;;;;;6262938;28;20657;-50
2022/12/14 14:46:36;;;;;;;25.90;18.40;;;-2.90;1.00;;;;;;6262124;28;20258;-51
2022/12/14 14:49:42;;;;;;;30.00;19.57;;;-3.10;1.00;;;;;;6268479;28;20271;-52
2022/12/14 14:52:59;;;;;;;28.63;19.53;;;-3.10;1.00;;;;;;6253444;28;20230;-50
2022/12/14 14:56:34;;;;;;;29.70;18.70;;;-3.10;1.00;;;;;;6230336;28;20238;-50
2022/12/14 14:59:45;;;;;;;31.00;21.67;;;-3.10;1.00;;;;;;6235309;28;20246;-51
2022/12/14 15:02:55;;;;;;;26.90;19.23;;;-3.20;1.00;;;;;;6238173;28;20647;-51
2022/12/14 15:06:00;;;;;;;25.43;19.50;;;-3.00;1.00;;;;;;6241009;28;20234;-51
2022/12/14 15:09:16;;;;;;;27.83;19.87;;;-3.30;1.00;;;;;;6238126;28;20241;-50
2022/12/14 15:12:27;;;;;;;30.77;20.33;;;-3.50;1.00;;;;;;6230650;28;20475;-50
2022/12/14 15:15:36;;;;;;;31.47;21.07;;;-3.30;1.00;;;;;;6256533;28;20229;-51
2022/12/14 15:18:39;;;;;;;31.87;21.97;;;-3.20;1.00;;;;;;6266067;28;20733;-53
2022/12/14 15:21:43;;;;;;;31.67;20.57;;;-3.20;1.00;;;;;;6242881;28;20233;-52
2022/12/14 15:24:49;;;;;;;30.03;20.90;;;-3.40;1.00;;;;;;6260948;28;20618;-51
2022/12/14 15:27:52;;;;;;;33.17;22.30;;;-3.60;1.00;;;;;;6266643;28;20233;-51
2022/12/14 15:30:57;;;;;;;34.87;22.17;;;-3.30;1.00;;;;;;6261860;28;20241;-50
2022/12/14 15:34:02;;;;;;;33.03;22.30;;;-3.50;1.00;;;;;;6271771;28;20229;-49
2022/12/14 15:37:07;;;;;;;36.43;21.33;;;-3.50;1.00;;;;;;6254845;28;20244;-50
2022/12/14 15:40:15;;;;;;;31.80;21.67;;;-3.40;1.00;;;;;;6264125;28;20617;-50
2022/12/14 15:43:20;;;;;;;31.27;21.83;;;-3.50;1.00;;;;;;6263912;28;20233;-50
2022/12/14 15:46:26;;;;;;;34.10;22.63;;;-3.40;1.00;;;;;;6266462;28;20237;-50
2022/12/14 15:49:29;;;;;;;31.70;22.43;;;-3.70;1.00;;;;;;6274194;28;20245;-50
2022/12/14 15:52:34;;;;;;;30.70;22.33;;;-3.40;1.00;;;;;;6267966;28;20241;-51
2022/12/14 15:55:40;;;;;;;31.90;22.10;;;-3.70;1.00;;;;;;6239885;28;20241;-50
2022/12/14 15:58:44;;;;;;;32.40;21.90;;;-3.70;1.00;;;;;;6235985;28;20245;-51
2022/12/14 16:01:49;;;;;;;34.33;22.87;;;-3.60;1.00;;;;;;6237769;28;20253;-50
2022/12/14 16:05:02;;;;;;;30.70;23.20;;;-3.60;1.00;;;;;;6234956;28;20236;-50
2022/12/14 16:08:09;;;;;;;34.93;23.77;;;-3.70;1.00;;;;;;6264538;28;20922;-50
2022/12/14 16:11:20;;;;;;;32.00;23.90;;;-3.80;1.00;;;;;;6267339;28;20367;-50
2022/12/14 16:14:30;;;;;;;39.50;25.30;;;-3.60;1.00;;;;;;6260713;28;20245;-51
2022/12/14 16:17:35;;;;;;;36.30;24.57;;;-3.70;1.00;;;;;;6244837;28;20408;-50
2022/12/14 16:20:42;;;;;;;34.97;24.60;;;-3.50;1.00;;;;;;6256968;28;20241;-50
2022/12/14 16:23:48;;;;;;;38.83;24.97;;;-3.90;1.00;;;;;;6240187;28;20235;-50